createdAt,value
2019-02-22T00:00:22.811Z,174.40
2019-02-22T00:00:58.581Z,174.80
2019-02-22T00:01:34.017Z,178.00
2019-02-22T00:02:09.437Z,202.80
2019-02-22T00:02:44.616Z,198.50
2019-02-22T00:03:19.842Z,194.80
2019-02-22T00:03:55.270Z,177.30
2019-02-22T00:04:30.787Z,182.60
2019-02-22T00:05:06.097Z,186.90
2019-02-22T00:05:41.297Z,201.30
2019-02-22T00:06:16.505Z,194.40
2019-02-22T00:06:51.838Z,162.50
2019-02-22T00:07:27.161Z,167.20
2019-02-22T00:08:02.462Z,177.10
2019-02-22T00:08:37.976Z,172.80
2019-02-22T00:09:13.699Z,180.00
2019-02-22T00:09:49.783Z,159.40
2019-02-22T00:10:24.116Z,164.30
2019-02-22T00:10:59.519Z,186.30
2019-02-22T00:11:35.162Z,192.60
2019-02-22T00:12:10.260Z,202.60
2019-02-22T00:12:45.687Z,196.00
2019-02-22T00:13:20.891Z,176.90
2019-02-22T00:13:56.316Z,171.70
2019-02-22T00:14:31.731Z,167.80
2019-02-22T00:15:07.233Z,189.50
2019-02-22T00:15:42.563Z,196.50
2019-02-22T00:16:17.962Z,172.30
2019-02-22T00:16:53.312Z,184.70
2019-02-22T00:17:28.713Z,192.30
2019-02-22T00:18:04.043Z,188.60
2019-02-22T00:18:39.272Z,172.20
2019-02-22T00:19:14.976Z,191.30
2019-02-22T00:19:50.299Z,199.30
2019-02-22T00:20:25.899Z,185.40
2019-02-22T00:21:01.361Z,174.40
2019-02-22T00:21:36.802Z,182.40
2019-02-22T00:22:12.212Z,184.60
2019-02-22T00:22:47.626Z,200.10
2019-02-22T00:23:22.833Z,206.00
2019-02-22T00:23:58.358Z,190.10
2019-02-22T00:24:33.757Z,185.80
2019-02-22T00:25:09.084Z,200.10
2019-02-22T00:25:44.308Z,203.30
2019-02-22T00:26:19.410Z,207.90
2019-02-22T00:26:55.168Z,188.40
2019-02-22T00:27:30.345Z,176.30
2019-02-22T00:28:05.682Z,168.30
2019-02-22T00:28:40.978Z,166.50
2019-02-22T00:29:16.235Z,174.20
2019-02-22T00:29:51.444Z,186.00
2019-02-22T00:30:26.558Z,188.00
2019-02-22T00:31:02.081Z,188.60
2019-02-22T00:31:37.717Z,188.70
2019-02-22T00:32:13.046Z,191.40
2019-02-22T00:32:48.438Z,191.70
2019-02-22T00:33:23.866Z,184.10
2019-02-22T00:33:59.168Z,150.90
2019-02-22T00:34:34.388Z,151.70
2019-02-22T00:35:09.910Z,173.10
2019-02-22T00:35:45.281Z,194.60
2019-02-22T00:36:20.556Z,184.90
2019-02-22T00:36:56.155Z,164.40
2019-02-22T00:37:31.511Z,177.90
2019-02-22T00:38:06.726Z,163.80
2019-02-22T00:38:42.134Z,178.20
2019-02-22T00:39:17.562Z,188.70
2019-02-22T00:39:52.756Z,177.30
2019-02-22T00:40:28.274Z,181.40
2019-02-22T00:41:03.694Z,191.00
2019-02-22T00:41:38.932Z,186.40
2019-02-22T00:42:14.387Z,199.20
2019-02-22T00:42:50.380Z,199.20
2019-02-22T00:43:25.004Z,178.70
2019-02-22T00:44:00.557Z,184.50
2019-02-22T00:44:36.154Z,167.30
2019-02-22T00:45:11.776Z,138.90
2019-02-22T00:45:47.484Z,159.30
2019-02-22T00:46:22.724Z,191.30
2019-02-22T00:46:58.057Z,190.70
2019-02-22T00:47:33.453Z,191.10
2019-02-22T00:48:08.974Z,184.30
2019-02-22T00:48:44.277Z,159.70
2019-02-22T00:49:19.824Z,162.30
2019-02-22T00:49:55.352Z,172.30
2019-02-22T00:50:30.656Z,192.80
2019-02-22T00:51:05.889Z,209.50
2019-02-22T00:51:40.901Z,191.20
2019-02-22T00:52:16.220Z,186.50
2019-02-22T00:52:51.706Z,199.10
2019-02-22T00:53:27.126Z,186.60
2019-02-22T00:54:02.453Z,186.30
2019-02-22T00:54:37.972Z,185.60
2019-02-22T00:55:13.094Z,198.50
2019-02-22T00:55:48.798Z,200.80
2019-02-22T00:56:24.051Z,193.40
2019-02-22T00:56:59.271Z,191.10
2019-02-22T00:57:34.574Z,193.60
2019-02-22T00:58:10.020Z,188.90
2019-02-22T00:58:45.525Z,189.60
2019-02-22T00:59:20.833Z,191.20
2019-02-22T00:59:55.949Z,192.60
2019-02-22T01:00:31.467Z,182.50
2019-02-22T01:01:06.792Z,191.50
2019-02-22T01:01:42.315Z,173.80
2019-02-22T01:02:17.740Z,177.40
2019-02-22T01:02:53.070Z,173.40
2019-02-22T01:03:28.385Z,182.70
2019-02-22T01:04:03.802Z,183.00
2019-02-22T01:04:38.907Z,179.20
2019-02-22T01:05:14.122Z,174.10
2019-02-22T01:05:49.531Z,184.00
2019-02-22T01:06:25.171Z,187.50
2019-02-22T01:07:00.565Z,180.80
2019-02-22T01:07:35.991Z,173.20
2019-02-22T01:08:11.200Z,177.70
2019-02-22T01:08:46.611Z,194.50
2019-02-22T01:09:21.937Z,202.90
2019-02-22T01:09:57.335Z,188.60
2019-02-22T01:10:32.765Z,189.20
2019-02-22T01:11:07.903Z,183.10
2019-02-22T01:11:43.038Z,186.40
2019-02-22T01:12:18.760Z,168.50
2019-02-22T01:12:54.068Z,168.10
2019-02-22T01:13:29.289Z,176.70
2019-02-22T01:14:05.114Z,184.00
2019-02-22T01:14:40.654Z,191.20
2019-02-22T01:15:15.949Z,192.70
2019-02-22T01:15:51.544Z,174.30
2019-02-22T01:16:26.789Z,190.30
2019-02-22T01:17:02.015Z,199.50
2019-02-22T01:17:37.255Z,197.10
2019-02-22T01:18:12.567Z,187.80
2019-02-22T01:18:47.708Z,162.20
2019-02-22T01:19:22.819Z,161.60
2019-02-22T01:19:57.965Z,176.20
2019-02-22T01:20:33.481Z,181.80
2019-02-22T01:21:08.980Z,180.80
2019-02-22T01:21:44.643Z,158.70
2019-02-22T01:22:19.953Z,149.60
2019-02-22T01:22:55.302Z,166.30
2019-02-22T01:23:30.637Z,178.10
2019-02-22T01:24:06.041Z,182.10
2019-02-22T01:24:41.378Z,177.30
2019-02-22T01:25:17.094Z,170.40
2019-02-22T01:25:52.528Z,172.20
2019-02-22T01:26:28.058Z,172.80
2019-02-22T01:27:03.497Z,185.60
2019-02-22T01:27:38.730Z,186.40
2019-02-22T01:28:13.942Z,169.40
2019-02-22T01:28:49.185Z,145.40
2019-02-22T01:29:24.627Z,163.00
2019-02-22T01:29:59.838Z,195.70
2019-02-22T01:30:35.068Z,172.50
2019-02-22T01:31:10.175Z,176.10
2019-02-22T01:31:45.413Z,162.60
2019-02-22T01:32:20.830Z,181.10
2019-02-22T01:32:56.040Z,169.50
2019-02-22T01:33:31.369Z,173.80
2019-02-22T01:34:06.765Z,173.60
2019-02-22T01:34:41.988Z,147.60
2019-02-22T01:35:17.181Z,150.50
2019-02-22T01:35:52.494Z,178.20
2019-02-22T01:36:28.030Z,188.90
2019-02-22T01:37:03.356Z,168.50
2019-02-22T01:37:38.586Z,172.90
2019-02-22T01:38:14.284Z,157.10
2019-02-22T01:38:49.808Z,154.90
2019-02-22T01:39:25.020Z,167.30
2019-02-22T01:40:00.933Z,164.80
2019-02-22T01:40:43.704Z,154.10
2019-02-22T01:41:11.660Z,146.70
2019-02-22T01:41:46.986Z,142.70
2019-02-22T01:42:22.098Z,148.60
2019-02-22T01:42:57.435Z,168.60
2019-02-22T01:43:33.492Z,182.20
2019-02-22T01:44:08.056Z,179.40
2019-02-22T01:44:43.593Z,147.20
2019-02-22T01:45:19.189Z,130.70
2019-02-22T01:45:54.507Z,147.60
2019-02-22T01:46:29.851Z,177.00
2019-02-22T01:47:05.384Z,175.90
2019-02-22T01:47:40.502Z,179.20
2019-02-22T01:48:15.845Z,170.30
2019-02-22T01:48:51.124Z,153.30
2019-02-22T01:49:26.817Z,148.40
2019-02-22T01:50:02.245Z,158.50
2019-02-22T01:50:37.467Z,167.30
2019-02-22T01:51:12.781Z,146.20
2019-02-22T01:51:48.106Z,145.70
2019-02-22T01:52:23.641Z,153.80
2019-02-22T01:52:58.960Z,166.90
2019-02-22T01:53:34.349Z,180.00
2019-02-22T01:54:09.665Z,166.20
2019-02-22T01:54:44.975Z,179.60
2019-02-22T01:55:20.286Z,160.80
2019-02-22T01:55:55.920Z,128.70
2019-02-22T01:56:31.298Z,146.50
2019-02-22T01:57:06.538Z,156.70
2019-02-22T01:57:41.929Z,157.00
2019-02-22T01:58:17.241Z,150.60
2019-02-22T01:58:52.854Z,148.90
2019-02-22T01:59:28.039Z,143.50
2019-02-22T02:00:03.269Z,164.90
2019-02-22T02:00:38.563Z,180.20
2019-02-22T02:01:13.686Z,170.50
2019-02-22T02:01:49.312Z,143.00
2019-02-22T02:02:24.650Z,129.30
2019-02-22T02:03:00.306Z,140.90
2019-02-22T02:03:35.706Z,152.20
2019-02-22T02:04:11.236Z,165.80
2019-02-22T02:04:46.923Z,160.50
2019-02-22T02:05:22.255Z,168.80
2019-02-22T02:05:57.591Z,155.60
2019-02-22T02:06:33.189Z,146.90
2019-02-22T02:07:08.916Z,157.40
2019-02-22T02:07:44.252Z,165.00
2019-02-22T02:08:19.580Z,154.10
2019-02-22T02:08:54.881Z,166.60
2019-02-22T02:09:30.025Z,172.40
2019-02-22T02:10:05.746Z,158.80
2019-02-22T02:10:41.258Z,144.30
2019-02-22T02:11:16.777Z,158.40
2019-02-22T02:11:52.263Z,163.20
2019-02-22T02:12:27.527Z,148.90
2019-02-22T02:13:03.169Z,153.10
2019-02-22T02:13:38.359Z,152.30
2019-02-22T02:14:13.788Z,155.90
2019-02-22T02:14:49.281Z,171.20
2019-02-22T02:15:25.022Z,168.10
2019-02-22T02:16:00.349Z,159.70
2019-02-22T02:16:35.579Z,164.90
2019-02-22T02:17:11.308Z,177.50
2019-02-22T02:17:46.639Z,158.90
2019-02-22T02:18:22.178Z,181.20
2019-02-22T02:18:57.627Z,153.90
2019-02-22T02:19:33.043Z,154.00
2019-02-22T02:20:08.503Z,164.70
2019-02-22T02:20:43.817Z,162.00
2019-02-22T02:21:19.133Z,159.60
2019-02-22T02:21:54.439Z,135.70
2019-02-22T02:22:29.677Z,139.40
2019-02-22T02:23:05.022Z,153.60
2019-02-22T02:23:40.536Z,175.10
2019-02-22T02:24:16.072Z,184.00
2019-02-22T02:24:51.866Z,163.70
2019-02-22T02:25:27.283Z,147.70
2019-02-22T02:26:02.579Z,144.30
2019-02-22T02:26:37.807Z,148.00
2019-02-22T02:27:13.141Z,166.00
2019-02-22T02:27:48.471Z,160.60
2019-02-22T02:28:23.895Z,152.00
2019-02-22T02:28:59.408Z,143.20
2019-02-22T02:29:34.653Z,147.20
2019-02-22T02:30:09.882Z,148.20
2019-02-22T02:30:45.684Z,163.70
2019-02-22T02:31:21.015Z,159.90
2019-02-22T02:31:56.314Z,166.30
2019-02-22T02:32:31.729Z,141.80
2019-02-22T02:33:07.286Z,152.80
2019-02-22T02:33:42.591Z,172.60
2019-02-22T02:34:17.908Z,177.70
2019-02-22T02:34:53.419Z,182.50
2019-02-22T02:35:28.847Z,162.90
2019-02-22T02:36:04.179Z,165.10
2019-02-22T02:36:39.606Z,187.60
2019-02-22T02:37:14.825Z,180.20
2019-02-22T02:37:50.115Z,159.50
2019-02-22T02:38:25.650Z,171.30
2019-02-22T02:39:01.171Z,184.90
2019-02-22T02:39:36.493Z,182.00
2019-02-22T02:40:11.805Z,147.00
2019-02-22T02:40:47.727Z,174.20
2019-02-22T02:41:23.218Z,170.20
2019-02-22T02:41:58.651Z,168.30
2019-02-22T02:42:34.070Z,158.50
2019-02-22T02:43:09.500Z,147.20
2019-02-22T02:43:44.623Z,158.00
2019-02-22T02:44:19.926Z,162.10
2019-02-22T02:44:55.253Z,155.90
2019-02-22T02:45:30.661Z,155.90
2019-02-22T02:46:06.292Z,174.80
2019-02-22T02:46:41.431Z,159.00
2019-02-22T02:47:16.854Z,147.20
2019-02-22T02:47:52.196Z,150.30
2019-02-22T02:48:27.836Z,171.40
2019-02-22T02:49:03.154Z,175.50
2019-02-22T02:49:38.574Z,180.50
2019-02-22T02:50:14.100Z,176.00
2019-02-22T02:50:49.579Z,154.70
2019-02-22T02:51:24.999Z,139.80
2019-02-22T02:52:00.307Z,161.90
2019-02-22T02:52:35.627Z,160.40
2019-02-22T02:53:11.210Z,174.10
2019-02-22T02:53:46.629Z,149.30
2019-02-22T02:54:22.071Z,150.70
2019-02-22T02:54:57.364Z,141.10
2019-02-22T02:55:32.483Z,147.20
2019-02-22T02:56:07.786Z,157.70
2019-02-22T02:56:42.946Z,164.90
2019-02-22T02:57:18.455Z,161.80
2019-02-22T02:57:53.859Z,151.80
2019-02-22T02:58:29.323Z,152.70
2019-02-22T02:59:04.531Z,152.00
2019-02-22T02:59:39.973Z,143.10
2019-02-22T03:00:15.308Z,161.00
2019-02-22T03:00:51.015Z,171.20
2019-02-22T03:01:26.444Z,178.90
2019-02-22T03:02:01.800Z,174.20
2019-02-22T03:02:37.174Z,182.50
2019-02-22T03:03:12.475Z,170.90
2019-02-22T03:03:47.821Z,154.80
2019-02-22T03:04:23.021Z,136.10
2019-02-22T03:04:58.449Z,123.60
2019-02-22T03:05:33.644Z,144.50
2019-02-22T03:06:08.901Z,157.90
2019-02-22T03:06:44.219Z,160.70
2019-02-22T03:07:19.454Z,165.10
2019-02-22T03:07:55.071Z,159.00
2019-02-22T03:08:30.463Z,163.20
2019-02-22T03:09:06.165Z,177.60
2019-02-22T03:09:41.401Z,181.00
2019-02-22T03:10:16.803Z,168.50
2019-02-22T03:10:52.225Z,159.80
2019-02-22T03:11:27.772Z,155.00
2019-02-22T03:12:03.319Z,159.40
2019-02-22T03:12:38.601Z,185.00
2019-02-22T03:13:14.179Z,171.10
2019-02-22T03:13:49.528Z,161.60
2019-02-22T03:14:24.953Z,173.30
2019-02-22T03:15:00.319Z,153.50
2019-02-22T03:15:35.484Z,138.80
2019-02-22T03:16:11.079Z,148.20
2019-02-22T03:16:46.434Z,163.50
2019-02-22T03:17:21.762Z,171.60
2019-02-22T03:17:57.287Z,168.00
2019-02-22T03:18:32.511Z,155.80
2019-02-22T03:19:07.845Z,142.90
2019-02-22T03:19:43.158Z,155.00
2019-02-22T03:20:18.501Z,162.90
2019-02-22T03:20:53.815Z,158.90
2019-02-22T03:21:29.363Z,144.40
2019-02-22T03:22:04.651Z,154.10
2019-02-22T03:22:40.192Z,167.70
2019-02-22T03:23:15.891Z,179.00
2019-02-22T03:23:51.254Z,184.30
2019-02-22T03:24:26.677Z,153.40
2019-02-22T03:25:02.287Z,138.60
2019-02-22T03:25:37.588Z,135.70
2019-02-22T03:26:12.941Z,134.80
2019-02-22T03:26:48.242Z,129.30
2019-02-22T03:27:23.377Z,144.60
2019-02-22T03:27:58.779Z,141.90
2019-02-22T03:28:34.147Z,146.70
2019-02-22T03:29:09.453Z,166.20
2019-02-22T03:29:44.896Z,138.50
2019-02-22T03:30:20.313Z,140.20
2019-02-22T03:30:55.849Z,153.50
2019-02-22T03:31:31.254Z,155.50
2019-02-22T03:32:06.708Z,144.90
2019-02-22T03:32:42.134Z,150.20
2019-02-22T03:33:17.251Z,151.30
2019-02-22T03:33:52.907Z,146.80
2019-02-22T03:34:28.073Z,152.60
2019-02-22T03:35:03.581Z,156.70
2019-02-22T03:35:38.992Z,150.70
2019-02-22T03:36:14.389Z,159.30
2019-02-22T03:36:49.602Z,153.10
2019-02-22T03:37:25.059Z,159.70
2019-02-22T03:38:00.482Z,177.30
2019-02-22T03:38:35.905Z,163.70
2019-02-22T03:39:11.466Z,168.70
2019-02-22T03:39:47.063Z,134.50
2019-02-22T03:40:22.421Z,134.80
2019-02-22T03:40:57.631Z,165.10
2019-02-22T03:41:33.657Z,156.80
2019-02-22T03:42:08.469Z,155.30
2019-02-22T03:42:44.021Z,174.20
2019-02-22T03:43:19.384Z,153.50
2019-02-22T03:43:54.867Z,171.90
2019-02-22T03:44:30.150Z,177.70
2019-02-22T03:45:05.753Z,177.20
2019-02-22T03:45:42.012Z,167.60
2019-02-22T03:46:17.868Z,150.30
2019-02-22T03:46:53.303Z,166.50
2019-02-22T03:47:28.530Z,151.50
2019-02-22T03:48:03.946Z,165.60
2019-02-22T03:48:39.182Z,153.80
2019-02-22T03:49:14.780Z,160.70
2019-02-22T03:49:50.356Z,161.40
2019-02-22T03:50:25.761Z,169.20
2019-02-22T03:51:01.308Z,179.30
2019-02-22T03:51:36.773Z,161.60
2019-02-22T03:52:12.247Z,148.80
2019-02-22T03:52:47.665Z,139.40
2019-02-22T03:53:22.906Z,143.10
2019-02-22T03:53:58.112Z,147.60
2019-02-22T03:54:33.695Z,158.40
2019-02-22T03:55:09.509Z,157.90
2019-02-22T03:55:44.855Z,140.50
2019-02-22T03:56:20.063Z,155.00
2019-02-22T03:56:55.320Z,150.50
2019-02-22T03:57:30.727Z,152.90
2019-02-22T03:58:06.272Z,146.40
2019-02-22T03:58:41.799Z,155.00
2019-02-22T03:59:17.034Z,155.90
2019-02-22T03:59:52.276Z,141.40
2019-02-22T04:00:27.700Z,127.80
2019-02-22T04:01:03.318Z,154.60
2019-02-22T04:01:38.669Z,154.40
2019-02-22T04:02:14.186Z,148.40
2019-02-22T04:02:49.721Z,138.00
2019-02-22T04:03:25.334Z,147.90
2019-02-22T04:04:00.555Z,146.60
2019-02-22T04:04:36.079Z,149.00
2019-02-22T04:05:11.605Z,149.50
2019-02-22T04:05:47.058Z,156.50
2019-02-22T04:06:22.405Z,146.20
2019-02-22T04:06:57.925Z,150.60
2019-02-22T04:07:33.361Z,146.50
2019-02-22T04:08:08.774Z,134.00
2019-02-22T04:08:44.259Z,142.50
2019-02-22T04:09:19.562Z,142.80
2019-02-22T04:09:55.110Z,150.80
2019-02-22T04:10:30.826Z,152.10
2019-02-22T04:11:06.175Z,138.30
2019-02-22T04:11:45.530Z,148.80
2019-02-22T04:12:16.780Z,145.30
2019-02-22T04:12:52.092Z,168.50
2019-02-22T04:13:27.644Z,144.80
2019-02-22T04:14:03.050Z,161.50
2019-02-22T04:14:38.531Z,160.20
2019-02-22T04:15:13.926Z,133.50
2019-02-22T04:15:49.071Z,137.00
2019-02-22T04:16:24.164Z,146.70
2019-02-22T04:16:59.410Z,154.40
2019-02-22T04:17:34.710Z,152.00
2019-02-22T04:18:09.849Z,143.40
2019-02-22T04:18:45.438Z,130.00
2019-02-22T04:19:20.770Z,140.60
2019-02-22T04:19:56.195Z,146.30
2019-02-22T04:20:31.824Z,150.60
2019-02-22T04:21:07.041Z,181.40
2019-02-22T04:21:42.377Z,162.20
2019-02-22T04:22:17.494Z,140.20
2019-02-22T04:22:52.937Z,157.10
2019-02-22T04:23:28.353Z,169.90
2019-02-22T04:24:03.697Z,144.60
2019-02-22T04:24:39.232Z,148.70
2019-02-22T04:25:14.571Z,145.70
2019-02-22T04:25:49.861Z,163.10
2019-02-22T04:26:25.209Z,153.30
2019-02-22T04:27:00.528Z,160.40
2019-02-22T04:27:36.071Z,139.80
2019-02-22T04:28:11.279Z,140.10
2019-02-22T04:28:46.724Z,165.00
2019-02-22T04:29:22.017Z,159.50
2019-02-22T04:29:57.581Z,145.20
2019-02-22T04:30:32.876Z,154.20
2019-02-22T04:31:08.108Z,153.80
2019-02-22T04:31:43.223Z,143.00
2019-02-22T04:32:18.452Z,157.00
2019-02-22T04:32:53.957Z,156.50
2019-02-22T04:33:29.180Z,148.30
2019-02-22T04:34:04.578Z,124.20
2019-02-22T04:34:40.051Z,117.30
2019-02-22T04:35:15.547Z,128.50
2019-02-22T04:35:51.066Z,145.50
2019-02-22T04:36:26.614Z,125.50
2019-02-22T04:37:02.169Z,139.50
2019-02-22T04:37:37.388Z,133.50
2019-02-22T04:38:12.716Z,144.00
2019-02-22T04:38:48.130Z,141.90
2019-02-22T04:39:23.484Z,150.70
2019-02-22T04:39:58.981Z,147.70
2019-02-22T04:40:34.424Z,152.20
2019-02-22T04:41:09.859Z,142.60
2019-02-22T04:41:57.409Z,144.60
2019-02-22T04:42:21.230Z,139.20
2019-02-22T04:42:56.468Z,132.80
2019-02-22T04:43:31.971Z,109.70
2019-02-22T04:44:07.415Z,116.60
2019-02-22T04:44:43.056Z,121.50
2019-02-22T04:45:18.706Z,131.60
2019-02-22T04:45:54.022Z,128.30
2019-02-22T04:46:29.348Z,127.30
2019-02-22T04:47:04.664Z,133.70
2019-02-22T04:47:39.805Z,142.70
2019-02-22T04:48:15.219Z,123.10
2019-02-22T04:48:50.584Z,140.60
2019-02-22T04:49:25.922Z,129.40
2019-02-22T04:50:01.376Z,108.00
2019-02-22T04:50:36.884Z,124.60
2019-02-22T04:51:12.119Z,140.70
2019-02-22T04:51:47.712Z,124.00
2019-02-22T04:52:23.043Z,145.00
2019-02-22T04:52:58.450Z,135.20
2019-02-22T04:53:33.804Z,121.40
2019-02-22T04:54:09.215Z,130.60
2019-02-22T04:54:44.667Z,141.80
2019-02-22T04:55:20.197Z,142.10
2019-02-22T04:55:55.540Z,149.70
2019-02-22T04:56:30.993Z,156.90
2019-02-22T04:57:06.331Z,137.50
2019-02-22T04:57:41.541Z,134.20
2019-02-22T04:58:17.065Z,132.30
2019-02-22T04:58:52.481Z,138.30
2019-02-22T04:59:27.831Z,161.80
2019-02-22T05:00:03.531Z,162.10
2019-02-22T05:00:38.853Z,144.70
2019-02-22T05:01:14.258Z,125.80
2019-02-22T05:01:49.401Z,138.20
2019-02-22T05:02:24.619Z,143.50
2019-02-22T05:02:59.963Z,126.20
2019-02-22T05:03:35.277Z,127.30
2019-02-22T05:04:10.821Z,131.60
2019-02-22T05:04:46.065Z,136.30
2019-02-22T05:05:21.567Z,129.70
2019-02-22T05:05:56.852Z,136.50
2019-02-22T05:06:32.077Z,134.10
2019-02-22T05:07:07.587Z,140.80
2019-02-22T05:07:43.510Z,134.00
2019-02-22T05:08:18.736Z,138.10
2019-02-22T05:08:54.161Z,134.50
2019-02-22T05:09:29.491Z,145.90
2019-02-22T05:10:25.175Z,165.70
2019-02-22T05:11:00.557Z,132.40
2019-02-22T05:11:36.271Z,148.40
2019-02-22T05:12:11.481Z,155.90
2019-02-22T05:12:46.741Z,143.80
2019-02-22T05:13:22.246Z,144.40
2019-02-22T05:13:57.676Z,142.50
2019-02-22T05:14:33.196Z,132.30
2019-02-22T05:15:12.410Z,139.70
2019-02-22T05:15:43.981Z,146.40
2019-02-22T05:16:19.529Z,153.60
2019-02-22T05:16:55.176Z,143.20
2019-02-22T05:17:30.639Z,152.10
2019-02-22T05:18:06.050Z,141.90
2019-02-22T05:18:41.576Z,134.10
2019-02-22T05:19:16.817Z,169.40
2019-02-22T05:19:52.316Z,149.30
2019-02-22T05:20:28.634Z,140.10
2019-02-22T05:21:04.039Z,136.50
2019-02-22T05:21:39.275Z,138.40
2019-02-22T05:22:14.689Z,129.30
2019-02-22T05:22:50.055Z,129.20
2019-02-22T05:23:25.319Z,121.90
2019-02-22T05:24:00.532Z,124.40
2019-02-22T05:24:35.975Z,156.80
2019-02-22T05:25:11.378Z,144.50
2019-02-22T05:25:46.814Z,138.90
2019-02-22T05:26:22.264Z,129.90
2019-02-22T05:26:57.384Z,125.10
2019-02-22T05:27:32.829Z,142.30
2019-02-22T05:28:07.874Z,138.80
2019-02-22T05:28:43.374Z,118.60
2019-02-22T05:29:18.608Z,104.60
2019-02-22T05:29:53.799Z,131.20
2019-02-22T05:30:29.131Z,150.80
2019-02-22T05:31:04.325Z,145.40
2019-02-22T05:31:39.687Z,156.20
2019-02-22T05:32:15.209Z,145.90
2019-02-22T05:32:50.454Z,133.70
2019-02-22T05:33:25.869Z,138.80
2019-02-22T05:34:01.001Z,118.90
2019-02-22T05:34:36.314Z,138.50
2019-02-22T05:35:11.876Z,123.50
2019-02-22T05:35:47.108Z,126.30
2019-02-22T05:36:22.636Z,133.50
2019-02-22T05:36:58.163Z,134.40
2019-02-22T05:37:33.808Z,127.90
2019-02-22T05:38:09.136Z,124.90
2019-02-22T05:38:44.814Z,118.40
2019-02-22T05:39:20.118Z,118.30
2019-02-22T05:39:55.634Z,116.90
2019-02-22T05:40:31.138Z,120.90
2019-02-22T05:41:06.675Z,137.10
2019-02-22T05:41:42.101Z,136.10
2019-02-22T05:42:23.012Z,119.40
2019-02-22T05:42:53.157Z,110.70
2019-02-22T05:43:29.115Z,112.10
2019-02-22T05:44:04.583Z,118.10
2019-02-22T05:44:39.947Z,123.60
2019-02-22T05:45:15.174Z,134.00
2019-02-22T05:45:50.314Z,127.20
2019-02-22T05:46:25.612Z,120.70
2019-02-22T05:47:00.955Z,118.80
2019-02-22T05:47:36.601Z,145.20
2019-02-22T05:48:11.829Z,138.90
2019-02-22T05:48:47.455Z,127.00
2019-02-22T05:49:22.702Z,130.70
2019-02-22T05:49:58.106Z,129.20
2019-02-22T05:50:33.364Z,129.00
2019-02-22T05:51:08.570Z,125.80
2019-02-22T05:51:44.041Z,125.40
2019-02-22T05:52:19.246Z,129.00
2019-02-22T05:52:54.531Z,125.80
2019-02-22T05:53:29.939Z,119.50
2019-02-22T05:54:05.433Z,104.80
2019-02-22T05:54:40.989Z,112.70
2019-02-22T05:55:16.346Z,126.30
2019-02-22T05:55:51.537Z,162.90
2019-02-22T05:56:26.863Z,171.70
2019-02-22T05:57:02.086Z,169.80
2019-02-22T05:57:37.328Z,144.90
2019-02-22T05:58:12.668Z,148.60
2019-02-22T05:58:47.796Z,167.30
2019-02-22T05:59:22.895Z,173.50
2019-02-22T05:59:58.421Z,162.70
2019-02-22T06:00:33.639Z,166.60
2019-02-22T06:01:08.871Z,172.70
2019-02-22T06:01:44.081Z,186.80
2019-02-22T06:02:19.732Z,183.30
2019-02-22T06:02:54.836Z,155.30
2019-02-22T06:03:30.725Z,152.20
2019-02-22T06:04:06.005Z,183.80
2019-02-22T06:04:41.149Z,204.00
2019-02-22T06:05:16.591Z,194.20
2019-02-22T06:05:51.717Z,193.10
2019-02-22T06:06:27.421Z,168.90
2019-02-22T06:07:02.878Z,172.80
2019-02-22T06:07:38.084Z,185.40
2019-02-22T06:08:13.335Z,174.90
2019-02-22T06:08:48.977Z,177.50
2019-02-22T06:09:24.615Z,172.40
2019-02-22T06:09:59.802Z,182.00
2019-02-22T06:10:35.042Z,186.00
2019-02-22T06:11:10.369Z,187.40
2019-02-22T06:11:46.109Z,188.90
2019-02-22T06:12:22.032Z,193.90
2019-02-22T06:12:57.657Z,193.20
2019-02-22T06:13:32.963Z,193.50
2019-02-22T06:14:08.550Z,171.10
2019-02-22T06:14:43.861Z,163.60
2019-02-22T06:15:19.118Z,181.80
2019-02-22T06:15:54.515Z,183.70
2019-02-22T06:16:29.949Z,193.00
2019-02-22T06:17:14.221Z,177.20
2019-02-22T06:17:40.747Z,184.40
2019-02-22T06:18:16.455Z,198.90
2019-02-22T06:18:51.855Z,187.10
2019-02-22T06:19:27.582Z,203.40
2019-02-22T06:20:03.011Z,181.80
2019-02-22T06:20:38.401Z,178.30
2019-02-22T06:21:15.411Z,186.40
2019-02-22T06:21:48.933Z,159.10
2019-02-22T06:22:29.574Z,170.30
2019-02-22T06:23:00.101Z,191.30
2019-02-22T06:23:35.624Z,201.20
2019-02-22T06:24:10.919Z,191.50
2019-02-22T06:24:46.302Z,176.30
2019-02-22T06:25:21.660Z,188.10
2019-02-22T06:25:56.947Z,172.00
2019-02-22T06:26:32.361Z,146.30
2019-02-22T06:27:07.700Z,153.80
2019-02-22T06:27:43.047Z,171.90
2019-02-22T06:28:18.365Z,161.00
2019-02-22T06:28:53.870Z,149.40
2019-02-22T06:29:29.307Z,166.10
2019-02-22T06:30:04.875Z,171.70
2019-02-22T06:30:40.297Z,184.90
2019-02-22T06:31:15.807Z,176.50
2019-02-22T06:31:51.243Z,186.90
2019-02-22T06:32:26.483Z,183.70
2019-02-22T06:33:01.823Z,199.10
2019-02-22T06:33:37.222Z,182.80
2019-02-22T06:34:12.580Z,182.30
2019-02-22T06:34:48.071Z,164.50
2019-02-22T06:35:23.456Z,168.00
2019-02-22T06:35:58.750Z,180.00
2019-02-22T06:36:34.093Z,167.40
2019-02-22T06:37:09.191Z,171.50
2019-02-22T06:37:44.531Z,200.00
2019-02-22T06:38:19.841Z,191.70
2019-02-22T06:38:55.256Z,160.60
2019-02-22T06:39:30.465Z,184.10
2019-02-22T06:40:06.093Z,191.10
2019-02-22T06:40:41.321Z,185.10
2019-02-22T06:41:16.539Z,172.20
2019-02-22T06:41:51.868Z,159.60
2019-02-22T06:42:27.559Z,162.50
2019-02-22T06:43:02.654Z,165.50
2019-02-22T06:43:38.095Z,178.10
2019-02-22T06:44:13.389Z,185.40
2019-02-22T06:44:48.643Z,184.50
2019-02-22T06:45:24.143Z,166.10
2019-02-22T06:45:59.611Z,167.10
2019-02-22T06:46:35.013Z,189.00
2019-02-22T06:47:10.365Z,201.20
2019-02-22T06:47:45.793Z,182.40
2019-02-22T06:48:21.137Z,179.30
2019-02-22T06:48:56.330Z,170.20
2019-02-22T06:49:31.590Z,155.90
2019-02-22T06:50:07.207Z,175.20
2019-02-22T06:50:43.074Z,190.00
2019-02-22T06:51:18.204Z,193.90
2019-02-22T06:51:53.462Z,176.20
2019-02-22T06:52:29.786Z,155.20
2019-02-22T06:53:03.914Z,154.30
2019-02-22T06:53:39.310Z,155.60
2019-02-22T06:54:14.832Z,157.80
2019-02-22T06:54:50.346Z,146.90
2019-02-22T06:55:25.580Z,182.80
2019-02-22T06:56:00.795Z,182.60
2019-02-22T06:56:36.165Z,174.10
2019-02-22T06:57:11.375Z,154.10
2019-02-22T06:57:47.103Z,181.10
2019-02-22T06:58:22.227Z,167.80
2019-02-22T06:58:57.790Z,147.00
2019-02-22T06:59:33.271Z,156.50
2019-02-22T07:00:08.659Z,156.80
2019-02-22T07:00:44.075Z,167.10
2019-02-22T07:01:19.512Z,167.20
2019-02-22T07:01:54.965Z,178.50
2019-02-22T07:02:30.494Z,166.30
2019-02-22T07:03:05.622Z,172.20
2019-02-22T07:03:40.742Z,180.50
2019-02-22T07:04:16.364Z,192.00
2019-02-22T07:04:51.786Z,188.80
2019-02-22T07:05:27.081Z,185.30
2019-02-22T07:06:02.335Z,175.00
2019-02-22T07:06:37.647Z,178.20
2019-02-22T07:07:13.419Z,190.40
2019-02-22T07:07:48.614Z,194.70
2019-02-22T07:08:23.945Z,185.60
2019-02-22T07:08:59.334Z,178.70
2019-02-22T07:09:34.667Z,173.40
2019-02-22T07:10:10.076Z,181.70
2019-02-22T07:10:45.897Z,210.20
2019-02-22T07:11:21.404Z,221.10
2019-02-22T07:11:56.928Z,208.90
2019-02-22T07:12:32.455Z,196.90
2019-02-22T07:13:07.800Z,196.00
2019-02-22T07:13:43.313Z,198.40
2019-02-22T07:14:18.655Z,182.50
2019-02-22T07:14:53.864Z,197.50
2019-02-22T07:15:29.121Z,211.20
2019-02-22T07:16:04.415Z,201.60
2019-02-22T07:16:39.754Z,213.10
2019-02-22T07:17:15.149Z,224.60
2019-02-22T07:17:50.548Z,182.20
2019-02-22T07:18:25.754Z,188.20
2019-02-22T07:19:01.178Z,193.00
2019-02-22T07:19:36.393Z,176.50
2019-02-22T07:20:11.742Z,168.00
2019-02-22T07:20:47.145Z,191.30
2019-02-22T07:21:22.374Z,218.20
2019-02-22T07:21:58.080Z,203.70